Time;durP1;ratioP1;P1;durP2;ratioP2;P2;SDS_P1;SDS_P2;PMS_P1;PMS_P2;Temp;Humidity;BMP_temperature;BMP_pressure;BME280_temperature;BME280_humidity;BME280_pressure;Samples;Min_cycle;Max_cycle;Signal;HPM_P1;HPM_P2
2022/04/07 00:01:29;;;;;;;3.60;2.20;;;10.40;99.90;;;;;;5028000;28;20571;-72
2022/04/07 00:03:56;;;;;;;1.90;1.80;;;10.40;99.90;;;;;;5028568;28;20620;-73
2022/04/07 00:06:23;;;;;;;3.10;1.80;;;10.40;99.90;;;;;;5028416;28;20208;-72
2022/04/07 00:08:50;;;;;;;2.50;2.20;;;10.40;99.90;;;;;;5028001;28;20230;-72
2022/04/07 00:11:16;;;;;;;2.57;2.03;;;10.40;99.90;;;;;;5028231;28;20207;-72
2022/04/07 00:13:43;;;;;;;2.17;1.90;;;10.40;99.90;;;;;;5028258;28;20279;-72
2022/04/07 00:16:11;;;;;;;2.10;1.90;;;10.40;99.90;;;;;;5028009;28;20582;-72
2022/04/07 00:18:38;;;;;;;2.87;1.90;;;10.40;99.90;;;;;;5042498;28;20262;-73
2022/04/07 00:21:11;;;;;;;2.73;1.60;;;10.40;99.90;;;;;;5027682;28;20232;-72
2022/04/07 00:23:39;;;;;;;3.30;1.90;;;10.40;99.90;;;;;;5027976;28;20201;-72
2022/04/07 00:26:08;;;;;;;3.07;2.00;;;10.40;99.90;;;;;;5027714;28;20220;-72
2022/04/07 00:28:35;;;;;;;1.87;1.77;;;10.40;99.90;;;;;;5027870;28;20240;-72
2022/04/07 00:31:11;;;;;;;2.87;2.20;;;10.40;99.90;;;;;;5027250;28;20755;-71
2022/04/07 00:33:39;;;;;;;2.70;2.13;;;10.40;99.90;;;;;;5027997;28;20192;-71
2022/04/07 00:36:09;;;;;;;2.40;2.10;;;10.30;99.90;;;;;;5027357;28;20217;-71
2022/04/07 00:38:35;;;;;;;3.87;2.40;;;10.30;99.90;;;;;;5027682;28;20278;-71
2022/04/07 00:41:05;;;;;;;3.37;1.93;;;10.30;99.90;;;;;;5027677;28;20239;-71
2022/04/07 00:43:32;;;;;;;7.33;1.90;;;10.30;99.90;;;;;;5027979;28;20224;-71
2022/04/07 00:46:01;;;;;;;2.50;1.83;;;10.30;99.90;;;;;;5027283;28;20212;-72
2022/04/07 00:48:28;;;;;;;2.37;1.80;;;10.30;99.90;;;;;;5027740;28;20208;-73
2022/04/07 00:50:57;;;;;;;2.10;2.00;;;10.30;99.90;;;;;;5032395;28;20211;-73
2022/04/07 00:53:24;;;;;;;1.97;1.87;;;10.30;99.90;;;;;;5035021;28;20200;-73
2022/04/07 00:55:52;;;;;;;2.30;2.10;;;10.30;99.90;;;;;;5027666;28;20629;-73
2022/04/07 00:58:19;;;;;;;1.90;1.80;;;10.30;99.90;;;;;;5027433;28;20641;-73
2022/04/07 01:00:46;;;;;;;2.00;1.90;;;10.30;99.90;;;;;;5027653;28;20287;-73
2022/04/07 01:03:14;;;;;;;2.10;1.90;;;10.20;99.90;;;;;;5027785;28;20982;-73
2022/04/07 01:05:40;;;;;;;4.07;2.07;;;10.20;99.90;;;;;;5027833;28;20228;-73
2022/04/07 01:08:09;;;;;;;2.30;2.10;;;10.20;99.90;;;;;;5027316;28;20201;-73
2022/04/07 01:10:37;;;;;;;2.93;1.80;;;10.20;99.90;;;;;;5027795;28;20267;-72
2022/04/07 01:13:04;;;;;;;3.73;2.37;;;10.20;99.90;;;;;;5027599;28;20212;-72
2022/04/07 01:15:31;;;;;;;2.00;1.87;;;10.20;99.90;;;;;;5010697;28;20237;-72
2022/04/07 01:17:58;;;;;;;3.67;2.10;;;10.20;99.90;;;;;;5017674;28;20208;-72
2022/04/07 01:20:25;;;;;;;2.10;1.90;;;10.20;99.90;;;;;;5026826;28;20712;-71
2022/04/07 01:22:52;;;;;;;2.40;1.80;;;10.20;99.90;;;;;;5027325;28;20208;-71
2022/04/07 01:25:20;;;;;;;2.93;2.30;;;10.20;99.90;;;;;;5029619;28;20288;-70
2022/04/07 01:27:49;;;;;;;4.30;2.60;;;10.20;99.90;;;;;;5031211;28;20240;-70
2022/04/07 01:30:16;;;;;;;2.10;1.90;;;10.10;99.90;;;;;;5031060;28;20270;-71
2022/04/07 01:32:46;;;;;;;2.50;2.30;;;10.10;99.90;;;;;;5030916;28;20233;-71
2022/04/07 01:35:14;;;;;;;3.17;2.33;;;10.10;99.90;;;;;;5031171;28;20705;-70
2022/04/07 01:37:45;;;;;;;2.60;2.40;;;10.10;99.90;;;;;;5030870;28;20267;-70
2022/04/07 01:40:15;;;;;;;2.40;2.30;;;10.10;99.90;;;;;;5030877;28;20193;-70
2022/04/07 01:42:46;;;;;;;2.57;2.37;;;10.00;99.90;;;;;;5031112;28;20259;-71
2022/04/07 01:45:14;;;;;;;2.70;2.50;;;10.10;99.90;;;;;;5028900;28;20240;-71
2022/04/07 01:47:43;;;;;;;3.43;2.50;;;10.00;99.90;;;;;;5019327;28;20668;-71
2022/04/07 01:50:11;;;;;;;2.70;2.47;;;10.00;99.90;;;;;;5030671;28;20692;-71
2022/04/07 01:52:39;;;;;;;2.73;2.53;;;10.00;99.90;;;;;;5026251;28;20743;-71
2022/04/07 01:55:07;;;;;;;3.07;2.83;;;10.00;99.90;;;;;;5030230;28;20283;-71
2022/04/07 01:57:34;;;;;;;4.33;3.03;;;10.00;99.90;;;;;;5030101;28;20777;-71
2022/04/07 02:00:03;;;;;;;3.00;2.80;;;10.00;99.90;;;;;;5029885;28;20216;-71
2022/04/07 02:02:30;;;;;;;3.53;3.03;;;10.10;99.90;;;;;;5022713;28;20200;-74
2022/04/07 02:04:58;;;;;;;2.83;2.63;;;10.00;99.90;;;;;;5030114;28;20217;-75
2022/04/07 02:07:30;;;;;;;3.17;2.40;;;10.00;99.90;;;;;;5030506;28;20215;-75
2022/04/07 02:09:57;;;;;;;3.17;2.77;;;10.00;99.90;;;;;;5030337;28;20205;-75
2022/04/07 02:12:27;;;;;;;3.27;3.07;;;10.00;99.90;;;;;;5030322;28;20204;-74
2022/04/07 02:14:54;;;;;;;3.33;3.03;;;10.00;99.90;;;;;;5030076;28;20229;-75
2022/04/07 02:17:23;;;;;;;3.43;2.90;;;10.00;99.90;;;;;;5022732;28;20214;-72
2022/04/07 02:19:50;;;;;;;3.10;2.80;;;10.00;99.90;;;;;;5049661;28;20239;-72
2022/04/07 02:22:17;;;;;;;3.70;3.07;;;9.90;99.90;;;;;;5034961;28;20205;-72
2022/04/07 02:24:44;;;;;;;4.47;3.30;;;9.90;99.90;;;;;;5029539;28;20656;-71
2022/04/07 02:27:11;;;;;;;4.47;3.50;;;9.80;99.90;;;;;;5027918;28;20208;-72
2022/04/07 02:29:38;;;;;;;3.50;3.30;;;9.90;99.90;;;;;;5027652;28;20193;-72
2022/04/07 02:32:06;;;;;;;4.57;3.50;;;9.90;99.90;;;;;;5027315;28;20225;-71
2022/04/07 02:34:34;;;;;;;4.87;3.40;;;9.90;99.90;;;;;;5027604;28;20276;-71
2022/04/07 02:37:01;;;;;;;3.40;3.13;;;9.90;99.90;;;;;;5026020;28;20212;-71
2022/04/07 02:39:28;;;;;;;4.13;3.40;;;9.90;99.90;;;;;;5027401;28;20208;-71
2022/04/07 02:41:54;;;;;;;4.30;3.57;;;9.90;99.90;;;;;;5027242;28;20325;-71
2022/04/07 02:44:21;;;;;;;4.03;3.27;;;9.90;99.90;;;;;;5027212;28;20235;-71
2022/04/07 02:46:48;;;;;;;4.03;3.63;;;9.90;99.90;;;;;;5027462;28;20275;-72
2022/04/07 02:49:15;;;;;;;3.73;3.43;;;9.80;99.90;;;;;;5026903;28;20935;-71
2022/04/07 02:51:43;;;;;;;3.50;3.27;;;9.90;99.90;;;;;;5026495;28;20700;-71
2022/04/07 02:54:10;;;;;;;3.50;3.20;;;9.90;99.90;;;;;;5026756;28;20283;-71
2022/04/07 02:56:37;;;;;;;3.10;2.90;;;9.80;99.90;;;;;;5026546;28;20767;-75
2022/04/07 02:59:04;;;;;;;3.87;3.63;;;9.80;99.90;;;;;;5026652;28;20213;-71
2022/04/07 03:01:31;;;;;;;4.57;3.50;;;9.90;99.90;;;;;;5026692;28;20613;-72
2022/04/07 03:03:59;;;;;;;3.73;3.43;;;9.90;99.90;;;;;;5027661;28;20212;-71
2022/04/07 03:06:26;;;;;;;3.17;2.97;;;9.80;99.90;;;;;;5027388;28;20212;-71
2022/04/07 03:08:53;;;;;;;3.97;3.30;;;9.80;99.90;;;;;;5027659;28;20287;-72
2022/04/07 03:11:20;;;;;;;3.40;3.20;;;9.80;99.90;;;;;;5028476;28;20270;-72
2022/04/07 03:13:47;;;;;;;3.63;3.33;;;9.80;99.90;;;;;;5028787;28;20258;-72
2022/04/07 03:16:14;;;;;;;3.93;3.37;;;9.80;99.90;;;;;;5028511;28;20255;-72
2022/04/07 03:18:40;;;;;;;3.10;2.90;;;9.70;99.90;;;;;;5044980;28;20212;-72
2022/04/07 03:21:07;;;;;;;3.33;3.10;;;9.70;99.90;;;;;;5048316;28;20227;-72
2022/04/07 03:23:33;;;;;;;3.80;3.23;;;9.70;99.90;;;;;;5038994;28;20213;-72
2022/04/07 03:26:10;;;;;;;3.67;3.37;;;9.70;99.90;;;;;;5028657;28;20217;-72
2022/04/07 03:28:37;;;;;;;3.20;2.87;;;9.70;99.90;;;;;;5029048;28;20220;-71
2022/04/07 03:31:09;;;;;;;3.87;3.57;;;9.70;99.90;;;;;;5028351;28;20237;-71
2022/04/07 03:33:36;;;;;;;3.20;2.87;;;9.70;99.90;;;;;;5028601;28;20208;-71
2022/04/07 03:36:10;;;;;;;3.43;3.20;;;9.70;99.90;;;;;;5020354;28;20247;-71
2022/04/07 03:38:38;;;;;;;3.50;3.17;;;9.70;99.90;;;;;;5028413;28;20231;-71
2022/04/07 03:41:09;;;;;;;3.20;3.00;;;9.70;99.90;;;;;;5028216;28;20212;-71
2022/04/07 03:43:36;;;;;;;4.13;3.00;;;9.70;99.90;;;;;;5028647;28;20209;-71
2022/04/07 03:46:10;;;;;;;3.03;2.83;;;9.70;99.90;;;;;;5028222;28;20217;-71
2022/04/07 03:48:37;;;;;;;3.33;3.13;;;9.70;99.90;;;;;;5028416;28;20196;-71
2022/04/07 03:51:09;;;;;;;3.47;3.20;;;9.70;99.90;;;;;;5028443;28;20243;-71
2022/04/07 03:53:36;;;;;;;3.37;3.10;;;9.70;99.90;;;;;;5028335;28;20212;-71
2022/04/07 03:56:06;;;;;;;3.50;3.20;;;9.70;99.90;;;;;;5028473;28;20268;-71
2022/04/07 03:58:34;;;;;;;3.40;3.20;;;9.80;99.90;;;;;;5028582;28;20581;-71
2022/04/07 04:01:01;;;;;;;3.73;3.20;;;9.70;99.90;;;;;;5027705;28;20213;-72
2022/04/07 04:03:27;;;;;;;3.67;3.33;;;9.70;99.90;;;;;;5028407;28;20215;-72
2022/04/07 04:05:54;;;;;;;3.23;3.03;;;9.80;99.90;;;;;;5028089;28;20262;-72
2022/04/07 04:08:21;;;;;;;2.87;2.63;;;9.70;99.90;;;;;;5028026;28;20208;-72
2022/04/07 04:10:48;;;;;;;3.37;2.83;;;9.80;99.90;;;;;;5028455;28;20208;-71
2022/04/07 04:13:14;;;;;;;3.30;3.00;;;9.80;99.90;;;;;;5028290;28;20216;-71
2022/04/07 04:15:42;;;;;;;3.03;2.83;;;9.80;99.90;;;;;;5027817;28;20711;-71
2022/04/07 04:18:09;;;;;;;3.20;3.00;;;9.80;99.90;;;;;;5039788;28;20211;-72
2022/04/07 04:20:35;;;;;;;3.43;3.20;;;9.80;99.90;;;;;;5047926;28;20232;-71
2022/04/07 04:23:02;;;;;;;3.13;2.93;;;9.80;99.90;;;;;;5042355;28;20271;-71
2022/04/07 04:25:29;;;;;;;3.37;2.97;;;9.90;99.90;;;;;;5027934;28;20208;-71
2022/04/07 04:27:55;;;;;;;3.23;2.90;;;9.90;99.90;;;;;;5027978;28;20209;-71
2022/04/07 04:30:23;;;;;;;3.27;3.07;;;9.90;99.90;;;;;;5027603;28;20266;-71
2022/04/07 04:32:50;;;;;;;3.30;3.00;;;9.90;99.90;;;;;;5027817;28;20205;-71
2022/04/07 04:35:17;;;;;;;2.90;2.70;;;9.90;99.90;;;;;;5028174;28;20278;-71
2022/04/07 04:37:44;;;;;;;4.03;2.97;;;9.90;99.90;;;;;;5027694;28;20295;-71
2022/04/07 04:40:11;;;;;;;3.80;3.00;;;9.90;99.90;;;;;;5027854;28;20212;-72
2022/04/07 04:42:40;;;;;;;3.40;3.07;;;9.90;99.90;;;;;;5027648;28;20201;-72
2022/04/07 04:45:08;;;;;;;2.70;2.60;;;9.90;99.90;;;;;;5027545;28;20635;-71
2022/04/07 04:47:34;;;;;;;3.03;2.80;;;9.90;99.90;;;;;;5027428;28;20667;-71
2022/04/07 04:50:04;;;;;;;2.80;2.60;;;9.90;99.90;;;;;;5027113;28;20736;-71
2022/04/07 04:52:31;;;;;;;2.70;2.43;;;10.00;99.90;;;;;;5022682;28;20205;-72
2022/04/07 04:54:58;;;;;;;2.70;2.50;;;9.90;99.90;;;;;;5007752;28;20214;-72
2022/04/07 04:57:24;;;;;;;2.93;2.73;;;10.00;99.90;;;;;;5009306;28;20237;-72
2022/04/07 04:59:51;;;;;;;2.97;2.67;;;9.90;99.90;;;;;;5028455;28;20899;-71
2022/04/07 05:02:19;;;;;;;2.93;2.73;;;10.00;99.90;;;;;;5031757;28;20251;-72
2022/04/07 05:04:46;;;;;;;3.97;3.60;;;10.00;99.90;;;;;;5031624;28;20212;-71
2022/04/07 05:07:14;;;;;;;3.57;2.63;;;10.00;99.90;;;;;;5029689;28;20212;-71
2022/04/07 05:09:41;;;;;;;3.37;3.03;;;10.00;99.90;;;;;;5029976;28;20262;-71
2022/04/07 05:12:08;;;;;;;2.93;2.67;;;10.00;99.90;;;;;;5031190;28;20204;-71
2022/04/07 05:14:34;;;;;;;3.60;3.30;;;10.00;99.90;;;;;;5031113;28;20255;-71
2022/04/07 05:17:01;;;;;;;3.47;2.70;;;10.00;99.90;;;;;;5020973;28;20654;-71
2022/04/07 05:19:28;;;;;;;3.20;3.00;;;10.00;99.90;;;;;;5051407;28;20236;-71
2022/04/07 05:21:54;;;;;;;2.90;2.70;;;10.00;99.90;;;;;;5050110;28;20238;-71
2022/04/07 05:24:22;;;;;;;2.70;2.50;;;9.90;99.90;;;;;;5030853;28;20686;-71
2022/04/07 05:26:49;;;;;;;3.00;2.80;;;10.00;99.90;;;;;;5030974;28;20209;-71
2022/04/07 05:29:16;;;;;;;2.50;2.40;;;9.90;99.90;;;;;;5030887;28;20205;-71
2022/04/07 05:31:43;;;;;;;3.03;2.47;;;10.00;99.90;;;;;;5030836;28;20236;-72
2022/04/07 05:34:10;;;;;;;3.23;2.93;;;10.00;99.90;;;;;;5030883;28;20496;-71
2022/04/07 05:36:36;;;;;;;2.90;2.70;;;10.00;99.90;;;;;;5030458;28;20233;-71
2022/04/07 05:39:03;;;;;;;2.60;2.40;;;10.10;99.90;;;;;;5030553;28;20212;-71
2022/04/07 05:41:31;;;;;;;2.50;2.30;;;10.10;99.90;;;;;;5030953;28;20205;-71
2022/04/07 05:43:58;;;;;;;2.53;2.33;;;10.20;99.90;;;;;;5030205;28;20554;-71
2022/04/07 05:46:24;;;;;;;2.53;2.37;;;10.20;99.90;;;;;;5030588;28;20213;-71
2022/04/07 05:48:51;;;;;;;2.73;2.47;;;10.30;99.90;;;;;;5030794;28;20633;-71
2022/04/07 05:51:17;;;;;;;2.27;2.17;;;10.40;99.90;;;;;;5030627;28;20209;-71
2022/04/07 05:53:44;;;;;;;2.00;1.90;;;10.50;99.90;;;;;;5030481;28;20208;-72
2022/04/07 05:56:11;;;;;;;2.60;1.90;;;10.50;99.90;;;;;;5030747;28;20229;-71
2022/04/07 05:58:39;;;;;;;2.20;2.00;;;10.60;99.90;;;;;;5030636;28;20556;-71
2022/04/07 06:01:08;;;;;;;2.60;2.40;;;10.60;99.90;;;;;;5029900;28;20213;-71
2022/04/07 06:03:36;;;;;;;3.43;2.10;;;10.60;99.90;;;;;;5030208;28;20619;-71
2022/04/07 06:06:09;;;;;;;2.13;1.93;;;10.70;99.90;;;;;;5030077;28;20209;-71
2022/04/07 06:08:36;;;;;;;2.50;2.30;;;10.70;99.90;;;;;;5030252;28;20286;-71
2022/04/07 06:11:09;;;;;;;2.00;1.83;;;10.80;99.90;;;;;;5029784;28;20715;-71
2022/04/07 06:13:36;;;;;;;2.87;1.83;;;10.80;99.90;;;;;;5029958;28;20248;-71
2022/04/07 06:16:10;;;;;;;2.57;2.10;;;10.90;99.90;;;;;;5022778;28;20237;-71
2022/04/07 06:18:37;;;;;;;2.73;2.50;;;10.80;99.90;;;;;;5036075;28;20251;-71
2022/04/07 06:21:06;;;;;;;2.27;1.90;;;10.90;99.90;;;;;;5029634;28;20248;-71
2022/04/07 06:23:33;;;;;;;2.20;1.87;;;10.90;99.90;;;;;;5029744;28;20274;-71
2022/04/07 06:26:00;;;;;;;2.73;1.70;;;11.00;99.90;;;;;;5029966;28;20227;-71
2022/04/07 06:28:26;;;;;;;1.53;1.43;;;11.00;99.90;;;;;;5029784;28;20263;-71
2022/04/07 06:30:54;;;;;;;1.83;1.73;;;11.00;99.90;;;;;;5029564;28;20652;-71
2022/04/07 06:33:22;;;;;;;2.10;1.50;;;11.10;99.90;;;;;;5030237;28;20293;-71
2022/04/07 06:35:49;;;;;;;1.80;1.70;;;11.00;99.90;;;;;;5029665;28;20233;-71
2022/04/07 06:38:16;;;;;;;2.30;1.83;;;11.00;99.90;;;;;;5029978;28;20578;-71
2022/04/07 06:40:42;;;;;;;1.80;1.70;;;10.90;99.90;;;;;;5029922;28;20548;-71
2022/04/07 06:43:09;;;;;;;1.83;1.33;;;10.80;99.90;;;;;;5029536;28;20209;-71
2022/04/07 06:45:36;;;;;;;1.50;1.37;;;10.80;99.90;;;;;;5029478;28;20201;-71
2022/04/07 06:48:02;;;;;;;1.60;1.50;;;10.80;99.90;;;;;;5029443;28;20209;-71
2022/04/07 06:50:31;;;;;;;1.93;1.63;;;10.90;99.90;;;;;;5023453;28;20685;-71
2022/04/07 06:52:58;;;;;;;1.63;1.53;;;11.00;99.90;;;;;;5014239;28;20722;-71
2022/04/07 06:55:25;;;;;;;2.57;2.10;;;11.00;99.90;;;;;;5029046;28;20672;-71
2022/04/07 06:57:53;;;;;;;1.70;1.60;;;11.00;99.90;;;;;;5029151;28;20322;-71
2022/04/07 07:00:22;;;;;;;2.30;2.10;;;11.00;99.90;;;;;;5029083;28;20262;-71
2022/04/07 07:02:49;;;;;;;1.80;1.70;;;11.10;99.90;;;;;;5029228;28;20209;-71
2022/04/07 07:05:15;;;;;;;1.90;1.80;;;11.10;99.90;;;;;;5029060;28;20440;-71
2022/04/07 07:07:44;;;;;;;2.47;2.27;;;11.10;99.90;;;;;;5028911;28;20240;-71
2022/04/07 07:10:11;;;;;;;2.33;1.77;;;11.10;99.90;;;;;;5028998;28;20209;-72
2022/04/07 07:12:38;;;;;;;2.63;1.93;;;11.20;99.90;;;;;;5029090;28;20200;-71
2022/04/07 07:15:05;;;;;;;1.90;1.80;;;11.20;99.90;;;;;;5028667;28;20262;-71
2022/04/07 07:17:33;;;;;;;1.57;1.50;;;11.30;99.90;;;;;;5022981;28;20244;-71
2022/04/07 07:20:04;;;;;;;2.00;1.90;;;11.30;99.90;;;;;;5048290;28;20236;-71
2022/04/07 07:22:31;;;;;;;2.20;2.00;;;11.40;99.90;;;;;;5037943;28;20201;-71
2022/04/07 07:25:00;;;;;;;1.67;1.57;;;11.50;99.90;;;;;;5035340;28;20254;-71
2022/04/07 07:27:26;;;;;;;1.87;1.47;;;11.60;99.90;;;;;;5048524;28;20663;-71
2022/04/07 07:29:53;;;;;;;2.93;1.40;;;11.60;99.90;;;;;;5048283;28;20208;-71
2022/04/07 07:32:19;;;;;;;1.83;1.60;;;11.70;99.90;;;;;;5037660;28;20240;-71
2022/04/07 07:34:46;;;;;;;3.93;1.60;;;11.80;99.90;;;;;;5029034;28;20259;-71
2022/04/07 07:37:13;;;;;;;1.60;1.43;;;11.80;99.90;;;;;;5028161;28;20727;-71
2022/04/07 07:39:39;;;;;;;1.47;1.37;;;11.80;99.90;;;;;;5028652;28;20205;-71
2022/04/07 07:42:08;;;;;;;1.43;1.33;;;11.90;99.90;;;;;;5028751;28;20629;-71
2022/04/07 07:44:34;;;;;;;1.30;1.20;;;12.00;99.90;;;;;;5028448;28;20274;-71
2022/04/07 07:47:01;;;;;;;1.43;1.30;;;12.10;99.90;;;;;;5022115;28;20263;-71
2022/04/07 07:49:28;;;;;;;1.20;1.10;;;12.10;99.90;;;;;;5028681;28;20205;-71
2022/04/07 07:51:54;;;;;;;2.10;1.30;;;12.10;99.90;;;;;;5028105;28;20208;-71
2022/04/07 07:54:21;;;;;;;1.03;0.93;;;12.10;99.90;;;;;;5024721;28;20213;-71
2022/04/07 07:56:48;;;;;;;1.80;1.20;;;12.10;99.90;;;;;;5027979;28;20234;-71
2022/04/07 07:59:20;;;;;;;1.00;0.90;;;12.10;99.90;;;;;;5027990;28;20217;-71
2022/04/07 08:01:48;;;;;;;1.23;1.13;;;12.20;99.90;;;;;;5028366;28;20272;-71
2022/04/07 08:04:15;;;;;;;1.13;0.97;;;12.30;99.90;;;;;;5028277;28;20700;-71
2022/04/07 08:06:41;;;;;;;1.03;1.03;;;12.40;99.90;;;;;;5028047;28;20215;-71
2022/04/07 08:09:09;;;;;;;0.90;0.90;;;12.40;99.90;;;;;;5028168;28;20897;-71
2022/04/07 08:11:36;;;;;;;0.93;0.93;;;12.50;99.90;;;;;;5028222;28;20209;-71
2022/04/07 08:14:03;;;;;;;0.87;0.87;;;12.60;99.90;;;;;;5027849;28;20208;-71
2022/04/07 08:16:31;;;;;;;3.70;1.13;;;12.50;99.90;;;;;;5022529;28;20229;-71
2022/04/07 08:18:58;;;;;;;1.03;1.03;;;12.50;99.90;;;;;;5033964;28;20993;-71
2022/04/07 08:21:24;;;;;;;1.00;1.00;;;12.40;99.90;;;;;;5036430;28;20208;-71
2022/04/07 08:23:51;;;;;;;0.83;0.83;;;12.50;99.90;;;;;;5035592;28;20212;-71
2022/04/07 08:26:18;;;;;;;1.00;1.00;;;12.40;99.90;;;;;;5028200;28;20200;-72
2022/04/07 08:28:44;;;;;;;1.03;1.00;;;12.40;99.90;;;;;;5027869;28;20267;-71
2022/04/07 08:31:11;;;;;;;3.07;1.80;;;12.50;99.90;;;;;;5027740;28;20637;-71
2022/04/07 08:33:39;;;;;;;2.37;2.27;;;12.60;99.90;;;;;;5029104;28;20235;-71
2022/04/07 08:36:08;;;;;;;1.00;1.00;;;12.60;99.90;;;;;;5031547;28;20217;-71
2022/04/07 08:38:35;;;;;;;3.20;0.90;;;12.70;99.90;;;;;;5031928;28;20208;-71
2022/04/07 08:41:06;;;;;;;0.77;0.77;;;12.80;99.90;;;;;;5031836;28;20261;-71
2022/04/07 08:43:34;;;;;;;1.33;0.50;;;12.80;99.90;;;;;;5031730;28;20672;-71
2022/04/07 08:46:11;;;;;;;0.57;0.57;;;12.80;99.90;;;;;;5024802;28;20237;-71
2022/04/07 08:48:42;;;;;;;1.00;0.90;;;12.90;99.90;;;;;;5023353;28;20219;-73
2022/04/07 08:51:09;;;;;;;0.80;0.80;;;12.90;99.90;;;;;;5031389;28;20675;-72
2022/04/07 08:53:39;;;;;;;1.13;0.90;;;12.90;99.90;;;;;;5031853;28;20216;-75
2022/04/07 08:56:10;;;;;;;1.43;1.00;;;12.80;99.90;;;;;;5030905;28;20220;-73
2022/04/07 08:58:37;;;;;;;1.00;0.80;;;12.90;99.90;;;;;;5010510;28;20213;-72
2022/04/07 09:01:10;;;;;;;1.03;0.70;;;13.00;99.90;;;;;;5011536;28;20216;-72
2022/04/07 09:03:39;;;;;;;0.83;0.73;;;13.10;99.90;;;;;;5011940;28;20207;-72
2022/04/07 09:06:08;;;;;;;0.60;0.60;;;13.10;99.90;;;;;;5015380;28;20201;-72
2022/04/07 09:08:37;;;;;;;0.80;0.80;;;13.00;99.90;;;;;;5031421;28;20217;-71
2022/04/07 09:11:09;;;;;;;0.80;0.80;;;13.00;99.90;;;;;;5030840;28;20212;-71
2022/04/07 09:13:39;;;;;;;0.40;0.40;;;13.10;99.90;;;;;;5031287;28;20205;-71
2022/04/07 09:16:12;;;;;;;1.23;0.50;;;13.10;99.90;;;;;;5024224;28;20236;-71
2022/04/07 09:18:41;;;;;;;0.87;0.83;;;13.20;99.90;;;;;;5043481;28;20600;-71
2022/04/07 09:21:19;;;;;;;0.50;0.50;;;13.10;99.90;;;;;;5050410;28;20319;-71
2022/04/07 09:23:45;;;;;;;1.70;0.60;;;13.10;99.90;;;;;;5039366;28;20611;-71
2022/04/07 09:26:12;;;;;;;0.33;0.33;;;13.10;99.90;;;;;;5030525;28;20730;-73
2022/04/07 09:28:39;;;;;;;0.50;0.50;;;13.00;99.90;;;;;;5030732;28;20296;-73
2022/04/07 09:31:13;;;;;;;0.97;0.40;;;13.10;99.90;;;;;;5030780;28;20283;-73
2022/04/07 09:33:42;;;;;;;0.97;0.30;;;13.30;99.90;;;;;;5030685;28;20254;-73
2022/04/07 09:36:11;;;;;;;0.50;0.40;;;13.40;99.90;;;;;;5030178;28;20738;-72
2022/04/07 09:38:39;;;;;;;0.40;0.40;;;13.50;99.90;;;;;;5030411;28;20235;-73
2022/04/07 09:41:09;;;;;;;0.40;0.40;;;13.50;99.90;;;;;;5030365;28;20252;-72
2022/04/07 09:43:47;;;;;;;0.80;0.50;;;13.40;99.90;;;;;;5030278;28;20622;-72
2022/04/07 09:46:14;;;;;;;0.60;0.60;;;13.40;99.90;;;;;;5030105;28;20209;-72
2022/04/07 09:49:03;;;;;;;0.60;0.60;;;13.40;99.90;;;;;;5030754;28;20216;-72
2022/04/07 09:51:30;;;;;;;0.70;0.47;;;13.40;99.90;;;;;;5030317;28;20716;-71
2022/04/07 09:53:58;;;;;;;1.20;0.40;;;13.50;99.90;;;;;;5024800;28;20201;-71
2022/04/07 09:56:28;;;;;;;0.20;0.20;;;13.40;99.90;;;;;;5027185;28;20631;-71
2022/04/07 09:58:56;;;;;;;0.50;0.50;;;13.40;99.90;;;;;;5024737;28;20209;-71
2022/04/07 10:01:23;;;;;;;0.87;0.40;;;13.40;99.90;;;;;;5027566;28;20212;-71
2022/04/07 10:03:52;;;;;;;0.40;0.40;;;13.40;99.90;;;;;;5027082;28;20254;-71
2022/04/07 10:06:19;;;;;;;1.27;0.43;;;13.40;99.90;;;;;;5026646;28;20800;-71
2022/04/07 10:08:50;;;;;;;0.40;0.40;;;13.50;99.90;;;;;;5026478;28;20224;-71
2022/04/07 10:11:17;;;;;;;0.90;0.70;;;13.60;99.90;;;;;;5027806;28;20199;-71
2022/04/07 10:13:45;;;;;;;0.43;0.43;;;13.60;99.90;;;;;;5027792;28;20213;-71
2022/04/07 10:16:13;;;;;;;1.10;0.57;;;13.60;99.90;;;;;;5027185;28;20201;-71
2022/04/07 10:18:47;;;;;;;0.57;0.53;;;13.50;99.90;;;;;;5027457;28;20229;-72
2022/04/07 10:21:37;;;;;;;0.83;0.40;;;13.40;99.90;;;;;;5024029;28;20239;-71
2022/04/07 10:24:15;;;;;;;0.47;0.47;;;13.40;99.90;;;;;;5022385;28;20417;-73
2022/04/07 10:26:46;;;;;;;1.60;0.57;;;13.40;99.90;;;;;;5027056;28;20243;-71
2022/04/07 10:29:21;;;;;;;0.70;0.50;;;13.30;99.90;;;;;;5026567;28;20274;-71
2022/04/07 10:32:18;;;;;;;0.60;0.60;;;13.20;99.90;;;;;;5026988;28;20203;-71
2022/04/07 10:34:55;;;;;;;0.30;0.30;;;13.30;99.90;;;;;;5025159;28;20219;-70
2022/04/07 10:37:31;;;;;;;0.30;0.30;;;13.30;99.90;;;;;;5025166;28;20997;-71
2022/04/07 10:40:40;;;;;;;2.17;0.73;;;13.30;99.90;;;;;;5024972;28;20994;-71
2022/04/07 10:43:22;;;;;;;0.40;0.40;;;13.20;99.90;;;;;;5026265;28;20189;-71
2022/04/07 10:45:51;;;;;;;0.97;0.83;;;13.20;99.90;;;;;;5024274;28;20687;-71
2022/04/07 10:48:27;;;;;;;0.87;0.60;;;13.20;99.90;;;;;;5026396;28;20663;-71
2022/04/07 10:50:56;;;;;;;0.50;0.43;;;13.10;99.90;;;;;;5026092;28;20512;-71
2022/04/07 10:53:29;;;;;;;0.70;0.57;;;12.90;99.90;;;;;;5026247;28;20266;-71
2022/04/07 10:56:18;;;;;;;2.63;0.77;;;12.80;99.90;;;;;;5023779;28;20196;-71
2022/04/07 10:58:47;;;;;;;0.40;0.40;;;12.70;99.90;;;;;;5023862;28;20660;-71
2022/04/07 11:01:15;;;;;;;0.40;0.40;;;12.70;99.90;;;;;;5023033;28;20205;-71
2022/04/07 11:03:43;;;;;;;0.73;0.60;;;12.70;99.90;;;;;;5025879;28;20663;-71
2022/04/07 11:06:22;;;;;;;0.60;0.60;;;12.60;99.90;;;;;;5025802;28;20256;-71
2022/04/07 11:09:17;;;;;;;0.47;0.47;;;12.60;99.90;;;;;;5026131;28;20271;-71
2022/04/07 11:11:50;;;;;;;2.40;0.93;;;12.60;99.90;;;;;;5026672;28;20189;-71
2022/04/07 11:14:17;;;;;;;0.40;0.33;;;12.60;99.90;;;;;;5008355;28;20261;-71
2022/04/07 11:16:46;;;;;;;0.70;0.40;;;12.60;99.90;;;;;;5026714;28;20278;-71
2022/04/07 11:19:23;;;;;;;0.37;0.37;;;12.60;99.90;;;;;;5026073;28;20236;-71
2022/04/07 11:21:52;;;;;;;1.43;0.50;;;12.60;99.90;;;;;;5025763;28;20232;-70
2022/04/07 11:24:24;;;;;;;1.43;0.60;;;12.60;99.90;;;;;;5025848;28;20231;-71
2022/04/07 11:26:53;;;;;;;0.63;0.60;;;12.60;99.90;;;;;;5025291;28;20217;-71
2022/04/07 11:29:32;;;;;;;2.57;0.60;;;12.60;99.90;;;;;;5025600;28;20205;-71
2022/04/07 11:32:07;;;;;;;2.67;0.50;;;12.60;99.90;;;;;;5022647;28;20282;-71
2022/04/07 11:34:51;;;;;;;0.83;0.53;;;12.60;99.90;;;;;;5020047;28;20196;-71
2022/04/07 11:37:19;;;;;;;1.00;0.23;;;12.70;99.90;;;;;;5024877;28;20597;-71
2022/04/07 11:39:49;;;;;;;0.47;0.47;;;12.80;99.90;;;;;;5025203;28;20461;-71
2022/04/07 11:42:17;;;;;;;0.67;0.40;;;12.80;99.90;;;;;;5026387;28;20464;-71
2022/04/07 11:44:46;;;;;;;0.60;0.60;;;12.80;99.90;;;;;;5025916;28;20201;-71
2022/04/07 11:47:26;;;;;;;0.50;0.50;;;12.70;99.90;;;;;;5026333;28;20213;-71
2022/04/07 11:49:52;;;;;;;0.30;0.30;;;12.70;99.90;;;;;;5026144;28;20201;-71
2022/04/07 11:52:28;;;;;;;1.27;0.50;;;12.70;99.90;;;;;;5025689;28;20211;-71
2022/04/07 11:54:57;;;;;;;0.43;0.40;;;12.60;99.90;;;;;;5005615;28;20719;-71
2022/04/07 11:57:25;;;;;;;0.20;0.20;;;12.50;99.90;;;;;;5021031;28;20309;-71
2022/04/07 11:59:54;;;;;;;0.97;0.40;;;12.40;99.90;;;;;;5025622;28;20236;-71
2022/04/07 12:02:22;;;;;;;0.70;0.40;;;12.30;99.90;;;;;;5014304;28;20218;-71
2022/04/07 12:04:55;;;;;;;0.50;0.50;;;12.30;99.90;;;;;;5023646;28;20283;-71
2022/04/07 12:07:22;;;;;;;0.40;0.40;;;12.30;99.90;;;;;;5042014;28;20231;-71
2022/04/07 12:09:49;;;;;;;1.47;0.53;;;12.20;99.90;;;;;;5045433;28;20236;-71
2022/04/07 12:12:18;;;;;;;4.73;1.00;;;12.20;99.90;;;;;;5045687;28;20208;-71
2022/04/07 12:14:45;;;;;;;0.50;0.50;;;12.00;99.90;;;;;;5006119;28;20213;-71
2022/04/07 12:17:12;;;;;;;0.30;0.30;;;11.90;99.90;;;;;;5013403;28;20204;-71
2022/04/07 12:19:45;;;;;;;0.30;0.30;;;11.80;99.90;;;;;;5033882;28;21022;-71
2022/04/07 12:22:13;;;;;;;0.73;0.50;;;11.90;99.90;;;;;;5025359;28;20205;-71
2022/04/07 12:24:57;;;;;;;1.17;0.50;;;11.90;99.90;;;;;;5024163;28;20315;-71
2022/04/07 12:27:28;;;;;;;0.47;0.47;;;11.90;99.90;;;;;;5008725;28;20197;-72
2022/04/07 12:29:55;;;;;;;0.30;0.30;;;11.90;99.90;;;;;;5024620;28;20224;-71
2022/04/07 12:32:22;;;;;;;0.40;0.40;;;11.90;99.90;;;;;;5024302;28;20213;-71
2022/04/07 12:34:56;;;;;;;0.30;0.30;;;11.90;99.90;;;;;;5024610;28;20209;-71
2022/04/07 12:37:30;;;;;;;0.77;0.47;;;11.90;99.90;;;;;;5024219;28;20296;-72
2022/04/07 12:39:57;;;;;;;0.50;0.40;;;11.80;99.90;;;;;;5023491;28;20210;-72
2022/04/07 12:42:23;;;;;;;0.43;0.30;;;11.90;99.90;;;;;;5024531;28;20250;-71
2022/04/07 12:45:04;;;;;;;0.37;0.37;;;12.00;99.90;;;;;;5024874;28;20205;-72
2022/04/07 12:47:31;;;;;;;0.20;0.20;;;12.00;99.90;;;;;;5025548;28;20709;-71
2022/04/07 12:49:59;;;;;;;0.50;0.37;;;12.00;99.90;;;;;;5024905;28;20209;-71
2022/04/07 12:52:37;;;;;;;0.60;0.57;;;12.10;99.90;;;;;;5020590;28;20249;-71
2022/04/07 12:55:07;;;;;;;0.20;0.20;;;12.10;99.90;;;;;;5024564;28;20204;-71
2022/04/07 12:57:38;;;;;;;0.30;0.30;;;12.20;99.90;;;;;;5024789;28;20224;-71